createdAt,value
2018-05-17T00:00:22.506Z,100.00
2018-05-17T00:02:50.882Z,100.00
2018-05-17T00:05:19.101Z,100.00
2018-05-17T00:07:47.293Z,100.00
2018-05-17T00:10:15.898Z,100.00
2018-05-17T00:12:44.097Z,100.00
2018-05-17T00:15:12.349Z,100.00
2018-05-17T00:17:40.531Z,100.00
2018-05-17T00:20:08.737Z,100.00
2018-05-17T00:22:36.918Z,100.00
2018-05-17T00:25:05.563Z,100.00
2018-05-17T00:27:33.749Z,100.00
2018-05-17T00:30:01.942Z,100.00
2018-05-17T00:32:31.477Z,100.00
2018-05-17T00:34:59.692Z,100.00
2018-05-17T00:37:27.880Z,100.00
2018-05-17T00:39:56.074Z,100.00
2018-05-17T00:42:24.287Z,100.00
2018-05-17T00:44:54.098Z,99.99
2018-05-17T00:47:22.289Z,100.00
2018-05-17T00:49:50.491Z,99.91
2018-05-17T00:52:18.771Z,99.99
2018-05-17T00:54:46.877Z,99.80
2018-05-17T00:57:15.042Z,99.86
2018-05-17T00:59:49.925Z,99.92
2018-05-17T01:02:21.601Z,99.83
2018-05-17T01:04:49.785Z,99.79
2018-05-17T01:07:18.710Z,99.79
2018-05-17T01:09:46.898Z,99.67
2018-05-17T01:12:15.088Z,99.66
2018-05-17T01:14:43.295Z,99.63
2018-05-17T01:17:11.473Z,99.53
2018-05-17T01:19:39.646Z,99.40
2018-05-17T01:22:07.857Z,99.41
2018-05-17T01:24:36.161Z,99.42
2018-05-17T01:27:04.336Z,99.31
2018-05-17T01:29:34.283Z,99.30
2018-05-17T01:32:02.480Z,99.15
2018-05-17T01:34:30.655Z,99.11
2018-05-17T01:37:10.504Z,99.17
2018-05-17T01:39:38.665Z,99.20
2018-05-17T01:42:06.958Z,99.03
2018-05-17T01:44:35.047Z,99.06
2018-05-17T01:47:03.225Z,99.00
2018-05-17T01:49:31.397Z,98.85
2018-05-17T01:52:15.527Z,98.88
2018-05-17T01:54:43.728Z,98.87
2018-05-17T01:57:11.906Z,98.94
2018-05-17T01:59:40.070Z,98.82
2018-05-17T02:02:08.241Z,98.96
2018-05-17T02:04:36.949Z,98.90
2018-05-17T02:07:05.128Z,98.94
2018-05-17T02:09:33.613Z,98.84
2018-05-17T02:12:01.816Z,99.02
2018-05-17T02:14:29.958Z,99.10
2018-05-17T02:16:58.159Z,99.19
2018-05-17T02:19:26.314Z,99.29
2018-05-17T02:21:54.518Z,99.15
2018-05-17T02:24:22.692Z,99.18
2018-05-17T02:26:50.892Z,99.19
2018-05-17T02:29:19.081Z,99.37
2018-05-17T02:31:49.380Z,99.33
2018-05-17T02:34:17.540Z,99.38
2018-05-17T02:36:45.711Z,99.41
2018-05-17T02:39:13.904Z,99.47
2018-05-17T02:41:42.074Z,99.48
2018-05-17T02:44:14.551Z,99.36
2018-05-17T02:46:42.734Z,99.54
2018-05-17T02:49:11.021Z,99.61
2018-05-17T02:51:39.119Z,99.71
2018-05-17T02:54:07.986Z,99.62
2018-05-17T02:56:36.167Z,99.53
2018-05-17T02:59:04.377Z,99.49
2018-05-17T03:01:32.566Z,99.37
2018-05-17T03:04:00.723Z,99.45
2018-05-17T03:06:28.908Z,99.42
2018-05-17T03:08:57.096Z,99.52
2018-05-17T03:11:25.277Z,99.54
2018-05-17T03:13:53.457Z,99.47
2018-05-17T03:16:21.638Z,99.42
2018-05-17T03:18:49.812Z,99.44
2018-05-17T03:21:18.022Z,99.35
2018-05-17T03:23:46.190Z,99.38
2018-05-17T03:26:14.387Z,99.41
2018-05-17T03:28:42.572Z,99.17
2018-05-17T03:31:11.072Z,99.21
2018-05-17T03:33:39.712Z,99.11
2018-05-17T03:36:09.474Z,99.07
2018-05-17T03:38:37.931Z,99.02
2018-05-17T03:41:06.197Z,98.96
2018-05-17T03:43:34.404Z,98.93
2018-05-17T03:46:02.584Z,98.78
2018-05-17T03:48:36.482Z,98.80
2018-05-17T03:51:04.670Z,98.73
2018-05-17T03:53:32.871Z,98.70
2018-05-17T03:56:01.076Z,98.72
2018-05-17T03:58:32.408Z,98.83
2018-05-17T04:01:12.443Z,98.73
2018-05-17T04:03:52.414Z,98.74
2018-05-17T04:06:42.060Z,98.70
2018-05-17T04:09:10.762Z,98.76
2018-05-17T04:11:38.952Z,98.82
2018-05-17T04:14:07.124Z,98.79
2018-05-17T04:16:35.314Z,98.78
2018-05-17T04:19:03.490Z,98.79
2018-05-17T04:21:31.675Z,98.74
2018-05-17T04:23:59.856Z,98.76
2018-05-17T04:26:28.046Z,98.60
2018-05-17T04:28:56.229Z,98.43
2018-05-17T04:31:24.404Z,98.27
2018-05-17T04:33:52.978Z,98.04
2018-05-17T04:36:21.198Z,97.84
2018-05-17T04:38:49.382Z,97.82
2018-05-17T04:41:28.056Z,97.85
2018-05-17T04:43:56.254Z,97.77
2018-05-17T04:46:24.447Z,97.71
2018-05-17T04:48:52.607Z,97.79
2018-05-17T04:51:21.965Z,97.38
2018-05-17T04:53:50.886Z,97.61
2018-05-17T04:56:19.056Z,97.63
2018-05-17T04:58:53.415Z,97.56
2018-05-17T05:01:21.584Z,97.29
2018-05-17T05:03:50.721Z,97.53
2018-05-17T05:06:19.319Z,97.86
2018-05-17T05:08:47.491Z,97.63
2018-05-17T05:11:15.692Z,97.34
2018-05-17T05:13:45.639Z,96.59
2018-05-17T05:16:17.197Z,96.71
2018-05-17T05:18:45.339Z,96.37
2018-05-17T05:21:13.544Z,95.50
2018-05-17T05:23:41.752Z,95.27
2018-05-17T05:26:10.057Z,96.08
2018-05-17T05:28:38.220Z,95.26
2018-05-17T05:31:06.427Z,95.06
2018-05-17T05:33:34.585Z,95.45
2018-05-17T05:36:02.761Z,94.65
2018-05-17T05:38:31.044Z,94.28
2018-05-17T05:40:59.494Z,94.90
2018-05-17T05:43:27.667Z,94.28
2018-05-17T05:45:56.148Z,94.21
2018-05-17T05:48:24.309Z,94.03
2018-05-17T05:50:52.653Z,94.62
2018-05-17T05:53:21.192Z,94.36
2018-05-17T05:55:49.620Z,94.87
2018-05-17T05:58:18.084Z,95.16
2018-05-17T06:00:46.440Z,95.11
2018-05-17T06:03:14.986Z,95.27
2018-05-17T06:05:43.488Z,95.67
2018-05-17T06:08:11.927Z,95.65
2018-05-17T06:10:40.127Z,95.62
2018-05-17T06:13:08.292Z,95.61
2018-05-17T06:15:36.471Z,95.42
2018-05-17T06:18:04.821Z,95.29
2018-05-17T06:23:07.775Z,95.56
2018-05-17T06:25:36.276Z,95.99
2018-05-17T06:28:04.474Z,95.67
2018-05-17T06:30:32.774Z,95.49
2018-05-17T06:33:01.233Z,95.29
2018-05-17T06:35:29.746Z,95.32
2018-05-17T06:37:57.935Z,95.69
2018-05-17T06:40:26.088Z,95.76
2018-05-17T06:42:54.591Z,95.51
2018-05-17T06:45:22.749Z,95.53
2018-05-17T06:47:51.538Z,95.53
2018-05-17T06:50:19.715Z,95.61
2018-05-17T06:52:57.284Z,95.40
2018-05-17T06:55:25.455Z,95.40
2018-05-17T06:57:53.615Z,95.14
2018-05-17T07:00:21.777Z,95.25
2018-05-17T07:02:55.910Z,95.36
2018-05-17T07:05:24.067Z,94.90
2018-05-17T07:07:52.214Z,94.98
2018-05-17T07:10:20.379Z,95.05
2018-05-17T07:12:48.555Z,95.24
2018-05-17T07:15:17.387Z,94.80
2018-05-17T07:17:55.478Z,94.76
2018-05-17T07:20:24.002Z,94.85
2018-05-17T07:22:52.167Z,94.79
2018-05-17T07:25:20.361Z,94.83
2018-05-17T07:27:48.512Z,94.39
2018-05-17T07:30:16.681Z,94.81
2018-05-17T07:32:44.873Z,94.78
2018-05-17T07:35:13.029Z,94.95
2018-05-17T07:37:41.224Z,94.29
2018-05-17T07:40:22.283Z,94.36
2018-05-17T07:42:56.527Z,93.55
2018-05-17T07:45:34.545Z,93.43
2018-05-17T07:48:02.732Z,93.14
2018-05-17T07:50:34.317Z,92.70
2018-05-17T07:53:02.509Z,91.24
2018-05-17T07:55:30.699Z,91.00
2018-05-17T07:57:58.845Z,90.14
2018-05-17T08:00:27.074Z,90.03
2018-05-17T08:02:55.232Z,90.62
2018-05-17T08:05:23.412Z,89.97
2018-05-17T08:07:52.299Z,89.96
2018-05-17T08:10:20.472Z,89.90
2018-05-17T08:12:48.657Z,89.28
2018-05-17T08:15:30.545Z,88.55
2018-05-17T08:17:58.727Z,87.96
2018-05-17T08:20:27.027Z,87.98
2018-05-17T08:22:55.189Z,87.64
2018-05-17T08:25:24.016Z,88.00
2018-05-17T08:27:55.845Z,86.25
2018-05-17T08:30:24.005Z,86.11
2018-05-17T08:32:52.172Z,84.42
2018-05-17T08:35:20.382Z,83.91
2018-05-17T08:37:48.564Z,84.18
2018-05-17T08:40:17.170Z,83.70
2018-05-17T08:42:57.679Z,83.19
2018-05-17T08:45:25.826Z,83.56
2018-05-17T08:47:54.027Z,82.56
2018-05-17T08:50:22.212Z,83.11
2018-05-17T08:52:50.373Z,84.30
2018-05-17T09:08:38.390Z,85.47
2018-05-17T09:11:06.642Z,84.16
2018-05-17T09:13:34.954Z,84.00
2018-05-17T09:16:03.098Z,84.03
2018-05-17T09:18:31.390Z,84.44
2018-05-17T09:20:59.601Z,85.13
2018-05-17T09:23:27.808Z,85.28
2018-05-17T09:25:55.979Z,85.78
2018-05-17T09:28:24.178Z,85.31
2018-05-17T09:30:52.385Z,84.84
2018-05-17T09:33:20.591Z,84.31
2018-05-17T09:35:48.804Z,85.39
2018-05-17T09:38:16.985Z,85.58
2018-05-17T09:40:45.220Z,84.67
2018-05-17T09:43:13.434Z,85.14
2018-05-17T09:45:41.826Z,85.44
2018-05-17T09:48:10.049Z,85.90
2018-05-17T09:50:38.312Z,85.15
2018-05-17T09:53:06.509Z,85.46
2018-05-17T09:55:35.445Z,85.37
2018-05-17T09:58:03.654Z,85.83
2018-05-17T10:00:31.905Z,86.41
2018-05-17T10:03:00.183Z,87.04
2018-05-17T10:05:28.443Z,86.53
2018-05-17T10:08:01.771Z,86.95
2018-05-17T10:10:30.020Z,86.65
2018-05-17T10:12:58.431Z,86.00
2018-05-17T10:15:26.677Z,85.66
2018-05-17T10:17:54.908Z,85.77
2018-05-17T10:20:23.101Z,84.86
2018-05-17T10:22:51.316Z,84.91
2018-05-17T10:25:19.505Z,84.58
2018-05-17T10:27:47.725Z,84.02
2018-05-17T10:30:15.963Z,84.24
2018-05-17T10:32:44.170Z,82.67
2018-05-17T10:35:12.357Z,83.02
2018-05-17T10:37:40.570Z,83.31
2018-05-17T10:40:08.792Z,82.58
2018-05-17T10:42:36.978Z,81.90
2018-05-17T10:45:05.333Z,81.20
2018-05-17T10:47:33.529Z,82.03
2018-05-17T10:50:02.166Z,81.72
2018-05-17T10:52:31.004Z,80.55
2018-05-17T10:54:59.231Z,80.98
2018-05-17T10:57:27.434Z,80.72
2018-05-17T10:59:55.627Z,80.49
2018-05-17T11:02:23.881Z,79.49
2018-05-17T11:04:52.089Z,78.94
2018-05-17T11:07:20.416Z,78.75
2018-05-17T11:09:48.586Z,80.16
2018-05-17T11:12:16.932Z,79.49
2018-05-17T11:14:45.069Z,77.93
2018-05-17T11:17:13.288Z,79.19
2018-05-17T11:19:41.729Z,78.35
2018-05-17T11:22:11.600Z,78.35
2018-05-17T11:24:39.823Z,76.78
2018-05-17T11:27:08.024Z,78.22
2018-05-17T11:29:36.275Z,76.43
2018-05-17T11:32:04.507Z,77.08
2018-05-17T11:34:32.725Z,78.38
2018-05-17T11:37:00.939Z,77.74
2018-05-17T11:39:29.877Z,75.48
2018-05-17T11:41:58.095Z,74.94
2018-05-17T11:44:27.888Z,74.75
2018-05-17T11:46:56.118Z,73.77
2018-05-17T11:49:24.330Z,73.30
2018-05-17T11:51:52.517Z,71.01
2018-05-17T11:54:20.742Z,73.67
2018-05-17T11:56:48.986Z,72.50
2018-05-17T11:59:17.196Z,73.03
2018-05-17T12:01:45.422Z,73.24
2018-05-17T12:04:13.614Z,73.28
2018-05-17T12:06:41.851Z,74.16
2018-05-17T12:09:11.709Z,73.04
2018-05-17T12:11:39.928Z,74.38
2018-05-17T12:14:08.159Z,75.11
2018-05-17T12:16:36.352Z,74.89
2018-05-17T12:19:04.563Z,75.58
2018-05-17T12:21:34.831Z,75.93
2018-05-17T12:24:03.398Z,73.51
2018-05-17T12:26:32.518Z,75.32
2018-05-17T12:29:01.635Z,74.38
2018-05-17T12:31:29.942Z,74.72
2018-05-17T12:33:58.114Z,74.79
2018-05-17T12:36:26.330Z,74.46
2018-05-17T12:38:54.594Z,74.69
2018-05-17T12:41:22.882Z,76.04
2018-05-17T12:43:51.073Z,75.24
2018-05-17T12:46:19.328Z,75.74
2018-05-17T12:48:47.526Z,76.20
2018-05-17T12:51:15.701Z,75.88
2018-05-17T12:53:43.911Z,77.57
2018-05-17T12:56:12.139Z,77.95
2018-05-17T12:58:42.586Z,77.78
2018-05-17T13:01:13.086Z,78.85
2018-05-17T13:03:41.328Z,80.18
2018-05-17T13:06:09.528Z,81.96
2018-05-17T13:08:37.728Z,84.15
2018-05-17T13:11:05.952Z,84.32
2018-05-17T13:13:34.206Z,85.33
2018-05-17T13:16:02.451Z,86.50
2018-05-17T13:18:30.698Z,85.84
2018-05-17T13:20:58.949Z,87.34
2018-05-17T13:23:27.139Z,85.85
2018-05-17T13:25:55.382Z,85.15
2018-05-17T13:28:23.602Z,83.92
2018-05-17T13:30:51.830Z,82.85
2018-05-17T13:33:20.236Z,83.52
2018-05-17T13:35:48.471Z,82.91
2018-05-17T13:38:16.667Z,83.09
2018-05-17T13:40:44.945Z,82.50
2018-05-17T13:43:13.155Z,80.66
2018-05-17T13:45:41.364Z,81.08
2018-05-17T13:48:09.585Z,83.06
2018-05-17T13:50:37.866Z,79.56
2018-05-17T13:53:06.143Z,79.94
2018-05-17T13:55:34.427Z,78.04
2018-05-17T13:58:02.549Z,78.87
2018-05-17T14:00:30.781Z,78.45
2018-05-17T14:02:58.975Z,78.42
2018-05-17T14:05:28.195Z,79.71
2018-05-17T14:07:56.405Z,80.53
2018-05-17T14:10:24.944Z,80.67
2018-05-17T14:12:53.224Z,80.78
2018-05-17T14:15:21.466Z,80.31
2018-05-17T14:17:50.112Z,81.86
2018-05-17T14:20:18.594Z,81.01
2018-05-17T14:22:47.245Z,79.81
2018-05-17T14:25:15.499Z,80.44
2018-05-17T14:27:43.734Z,79.75
2018-05-17T14:30:12.096Z,79.98
2018-05-17T14:32:40.302Z,78.94
2018-05-17T14:35:08.566Z,79.18
2018-05-17T14:37:37.001Z,80.27
2018-05-17T14:40:05.300Z,77.37
2018-05-17T14:42:34.286Z,77.60
2018-05-17T14:45:05.466Z,76.61
2018-05-17T14:47:34.513Z,77.75
2018-05-17T14:50:02.727Z,73.85
2018-05-17T14:52:30.935Z,75.30
2018-05-17T14:55:01.041Z,75.53
2018-05-17T14:57:29.539Z,77.51
2018-05-17T14:59:58.221Z,77.79
2018-05-17T15:02:26.521Z,78.03
2018-05-17T15:04:55.158Z,75.16
2018-05-17T15:07:24.165Z,75.16
2018-05-17T15:09:52.826Z,76.00
2018-05-17T15:12:21.346Z,75.66
2018-05-17T15:14:49.599Z,75.64
2018-05-17T15:17:17.830Z,74.93
2018-05-17T15:19:46.055Z,77.91
2018-05-17T15:22:14.360Z,77.27
2018-05-17T15:24:42.940Z,77.94
2018-05-17T15:27:11.169Z,76.08
2018-05-17T15:29:39.405Z,78.49
2018-05-17T15:32:07.681Z,79.13
2018-05-17T15:34:35.876Z,79.98
2018-05-17T15:37:04.749Z,79.88
2018-05-17T15:39:33.113Z,79.83
2018-05-17T15:42:01.510Z,80.30
2018-05-17T15:44:29.736Z,80.41
2018-05-17T15:46:57.958Z,81.42
2018-05-17T15:49:27.960Z,81.08
2018-05-17T15:51:56.340Z,81.06
2018-05-17T15:54:24.591Z,81.60
2018-05-17T15:56:52.852Z,81.55
2018-05-17T15:59:21.103Z,81.15
2018-05-17T16:01:49.328Z,80.35
2018-05-17T16:04:17.581Z,80.95
2018-05-17T16:06:45.801Z,81.18
2018-05-17T16:09:14.022Z,79.03
2018-05-17T16:11:42.287Z,77.68
2018-05-17T16:14:10.492Z,77.71
2018-05-17T16:16:38.733Z,76.77
2018-05-17T16:19:06.928Z,77.16
2018-05-17T16:21:35.259Z,76.06
2018-05-17T16:24:03.590Z,77.14
2018-05-17T16:26:31.865Z,77.03
2018-05-17T16:29:00.055Z,76.78
2018-05-17T16:31:28.235Z,76.37
2018-05-17T16:33:56.463Z,76.38
2018-05-17T16:36:24.669Z,76.17
2018-05-17T16:38:52.886Z,76.71
2018-05-17T16:41:21.108Z,76.30
2018-05-17T16:43:49.328Z,76.18
2018-05-17T16:46:17.559Z,77.26
2018-05-17T16:48:45.814Z,76.49
2018-05-17T16:51:14.012Z,78.08
2018-05-17T16:53:42.199Z,76.53
2018-05-17T16:56:10.485Z,75.08
2018-05-17T16:58:38.784Z,75.37
2018-05-17T17:01:07.727Z,75.45
2018-05-17T17:03:36.029Z,76.10
2018-05-17T17:06:04.281Z,75.29
2018-05-17T17:08:32.470Z,75.80
2018-05-17T17:11:01.435Z,76.35
2018-05-17T17:13:29.822Z,77.22
2018-05-17T17:15:58.338Z,76.95
2018-05-17T17:18:27.389Z,77.09
2018-05-17T17:20:55.666Z,76.73
2018-05-17T17:23:24.391Z,76.75
2018-05-17T17:25:54.354Z,77.54
2018-05-17T17:28:25.044Z,78.03
2018-05-17T17:30:53.333Z,78.15
2018-05-17T17:33:22.563Z,78.61
2018-05-17T17:35:50.857Z,79.03
2018-05-17T17:38:19.143Z,78.77
2018-05-17T17:40:50.532Z,79.46
2018-05-17T17:43:18.882Z,80.02
2018-05-17T17:45:47.723Z,79.96
2018-05-17T17:48:17.725Z,80.47
2018-05-17T17:50:46.356Z,80.68
2018-05-17T17:53:14.578Z,81.34
2018-05-17T17:55:42.808Z,81.92
2018-05-17T17:58:11.091Z,81.87
2018-05-17T18:00:39.400Z,82.55
2018-05-17T18:03:07.871Z,82.80
2018-05-17T18:05:36.135Z,83.24
2018-05-17T18:08:04.462Z,83.42
2018-05-17T18:10:32.699Z,83.29
2018-05-17T18:13:00.984Z,83.65
2018-05-17T18:15:30.430Z,83.91
2018-05-17T18:17:58.643Z,83.94
2018-05-17T18:20:29.625Z,84.13
2018-05-17T18:22:57.916Z,84.36
2018-05-17T18:25:26.132Z,84.47
2018-05-17T18:27:54.480Z,84.77
2018-05-17T18:30:23.309Z,85.18
2018-05-17T18:32:54.347Z,85.33
2018-05-17T18:35:22.611Z,85.67
2018-05-17T18:37:51.771Z,85.65
2018-05-17T18:40:22.134Z,85.88
2018-05-17T18:42:50.342Z,86.22
2018-05-17T18:45:19.077Z,86.35
2018-05-17T18:47:47.322Z,86.69
2018-05-17T18:50:20.313Z,87.13
2018-05-17T18:52:49.503Z,87.07
2018-05-17T18:55:22.917Z,87.12
2018-05-17T18:57:49.476Z,87.52
2018-05-17T19:00:20.379Z,87.75
2018-05-17T19:02:48.654Z,87.91
2018-05-17T19:05:17.470Z,87.75
2018-05-17T19:07:45.694Z,87.87
2018-05-17T19:10:13.872Z,88.11
2018-05-17T19:12:42.334Z,88.30
2018-05-17T19:15:20.931Z,88.45
2018-05-17T19:17:49.170Z,88.65
2018-05-17T19:20:17.448Z,88.80
2018-05-17T19:22:47.043Z,89.01
2018-05-17T19:25:15.400Z,89.10
2018-05-17T19:27:43.697Z,89.02
2018-05-17T19:33:08.723Z,89.24
2018-05-17T19:35:37.208Z,89.45
2018-05-17T19:38:05.417Z,89.57
2018-05-17T19:40:33.612Z,89.75
2018-05-17T19:43:01.798Z,89.45
2018-05-17T19:45:30.150Z,89.75
2018-05-17T19:47:58.478Z,90.05
2018-05-17T19:50:26.839Z,90.45
2018-05-17T19:52:55.044Z,90.71
2018-05-17T19:55:23.250Z,90.69
2018-05-17T19:57:51.696Z,90.81
2018-05-17T20:00:20.268Z,91.41
2018-05-17T20:02:48.469Z,91.59
2018-05-17T20:05:17.000Z,91.49
2018-05-17T20:07:45.202Z,91.32
2018-05-17T20:10:13.385Z,91.37
2018-05-17T20:12:41.972Z,91.54
2018-05-17T20:15:10.194Z,91.65
2018-05-17T20:17:39.074Z,91.83
